Time;durP1;ratioP1;P1;durP2;ratioP2;P2;SDS_P1;SDS_P2;PMS_P1;PMS_P2;Temp;Humidity;BMP_temperature;BMP_pressure;BME280_temperature;BME280_humidity;BME280_pressure;Samples;Min_cycle;Max_cycle;Signal;HPM_P1;HPM_P2
2023/03/25 00:00:59;;;;;;;1.33;0.60;;;9.90;99.90;;;;;;5030304;28;20488;-50
2023/03/25 00:03:32;;;;;;;0.60;0.60;;;9.80;99.90;;;;;;5029690;28;20053;-48
2023/03/25 00:05:58;;;;;;;1.27;0.55;;;9.70;99.90;;;;;;5029988;28;20051;-49
2023/03/25 00:08:24;;;;;;;0.57;0.40;;;9.60;99.90;;;;;;5030112;28;20037;-49
2023/03/25 00:10:53;;;;;;;0.80;0.40;;;9.60;99.90;;;;;;5029496;28;20366;-48
2023/03/25 00:13:20;;;;;;;1.98;0.43;;;9.60;99.90;;;;;;5029463;28;20029;-46
2023/03/25 00:15:47;;;;;;;0.30;0.30;;;9.60;99.90;;;;;;5029714;28;20109;-51
2023/03/25 00:18:13;;;;;;;1.13;0.50;;;9.60;99.90;;;;;;5028656;28;20524;-50
2023/03/25 00:20:39;;;;;;;1.10;0.52;;;9.60;99.90;;;;;;5012778;28;20062;-52
2023/03/25 00:23:06;;;;;;;0.98;0.30;;;9.50;99.90;;;;;;5027290;22;20045;-51
2023/03/25 00:25:32;;;;;;;0.50;0.40;;;9.50;99.90;;;;;;5013264;28;20022;-50
2023/03/25 00:27:58;;;;;;;4.15;0.80;;;9.50;99.90;;;;;;5013283;28;20033;-49
2023/03/25 00:30:25;;;;;;;0.47;0.47;;;9.50;99.90;;;;;;5013137;28;20140;-52
2023/03/25 00:32:51;;;;;;;0.85;0.40;;;9.60;99.90;;;;;;5013342;28;20134;-49
2023/03/25 00:35:22;;;;;;;3.03;0.85;;;9.60;99.90;;;;;;5013253;28;20024;-54
2023/03/25 00:37:56;;;;;;;1.15;0.43;;;9.60;99.90;;;;;;5013063;28;20104;-50
2023/03/25 00:40:22;;;;;;;2.30;0.50;;;9.70;99.90;;;;;;5012783;28;20022;-52
2023/03/25 00:42:49;;;;;;;0.88;0.47;;;9.60;99.90;;;;;;5012915;28;20080;-50
2023/03/25 00:45:15;;;;;;;1.00;0.32;;;9.60;99.90;;;;;;5013094;28;20146;-53
2023/03/25 00:47:42;;;;;;;2.75;0.40;;;9.60;99.90;;;;;;5013544;28;20022;-53
2023/03/25 00:50:08;;;;;;;2.25;0.73;;;9.60;99.90;;;;;;5013238;28;20052;-51
2023/03/25 00:52:34;;;;;;;0.90;0.90;;;9.60;99.90;;;;;;5012486;28;20037;-54
2023/03/25 00:55:00;;;;;;;1.45;0.50;;;9.60;99.90;;;;;;5012333;28;20041;-48
2023/03/25 00:57:26;;;;;;;1.27;0.60;;;9.60;99.90;;;;;;5013320;28;20018;-53
2023/03/25 00:59:52;;;;;;;4.18;1.65;;;9.70;99.90;;;;;;5012896;28;20084;-56
2023/03/25 01:02:17;;;;;;;1.35;0.70;;;9.80;99.90;;;;;;4994977;28;20026;-50
2023/03/25 01:04:44;;;;;;;1.30;0.45;;;9.80;99.90;;;;;;5012965;28;20060;-52
2023/03/25 01:07:10;;;;;;;0.88;0.82;;;9.80;99.90;;;;;;5012704;28;20121;-51
2023/03/25 01:09:37;;;;;;;1.67;0.77;;;9.80;99.90;;;;;;5012705;28;20112;-51
2023/03/25 01:12:03;;;;;;;4.65;0.60;;;9.80;99.90;;;;;;4994823;28;20043;-54
2023/03/25 01:14:28;;;;;;;2.22;0.85;;;9.90;99.90;;;;;;5012667;28;20505;-57
2023/03/25 01:16:54;;;;;;;2.08;0.80;;;9.80;99.90;;;;;;5012683;28;20033;-51
2023/03/25 01:19:21;;;;;;;8.02;0.90;;;9.70;99.90;;;;;;4995037;28;20029;-50
2023/03/25 01:21:48;;;;;;;1.88;0.60;;;9.70;99.90;;;;;;5011717;28;20022;-56
2023/03/25 01:24:14;;;;;;;7.30;0.80;;;9.60;99.90;;;;;;5012237;28;20025;-52
2023/03/25 01:26:42;;;;;;;1.50;0.60;;;9.50;99.90;;;;;;5012426;28;20049;-52
2023/03/25 01:29:08;;;;;;;1.83;0.73;;;9.50;99.90;;;;;;5012048;28;20497;-52
2023/03/25 01:31:34;;;;;;;1.35;0.73;;;9.50;99.90;;;;;;5010571;28;20033;-49
2023/03/25 01:34:00;;;;;;;0.63;0.57;;;9.50;99.90;;;;;;5012254;28;20017;-52
2023/03/25 01:36:28;;;;;;;4.85;1.42;;;9.50;99.90;;;;;;5011808;28;20033;-52
2023/03/25 01:38:55;;;;;;;1.95;0.63;;;9.50;99.90;;;;;;5012041;28;20565;-50
2023/03/25 01:41:21;;;;;;;4.95;0.85;;;9.50;99.90;;;;;;5011740;28;20049;-48
2023/03/25 01:44:17;;;;;;;6.75;1.48;;;9.50;99.90;;;;;;5011953;28;20692;-49
2023/03/25 01:46:43;;;;;;;2.25;1.05;;;9.50;99.90;;;;;;5011838;28;20105;-48
2023/03/25 01:49:13;;;;;;;5.50;1.20;;;9.50;99.90;;;;;;4994382;28;20032;-51
2023/03/25 01:51:41;;;;;;;3.83;1.30;;;9.50;99.90;;;;;;4993865;28;20026;-52
2023/03/25 01:54:08;;;;;;;1.85;0.98;;;9.50;99.90;;;;;;5011865;28;20072;-53
2023/03/25 01:56:37;;;;;;;5.50;1.48;;;9.60;99.90;;;;;;5011529;28;20026;-51
2023/03/25 01:59:05;;;;;;;6.13;1.25;;;9.60;99.90;;;;;;5011728;28;20108;-53
2023/03/25 02:01:31;;;;;;;2.22;1.50;;;9.60;99.90;;;;;;5011677;28;20033;-51
2023/03/25 02:04:11;;;;;;;2.88;0.95;;;9.60;99.90;;;;;;5011763;28;20026;-54
2023/03/25 02:06:43;;;;;;;9.48;1.27;;;9.60;99.90;;;;;;5011296;28;20052;-54
2023/03/25 02:09:12;;;;;;;2.60;1.20;;;9.60;99.90;;;;;;5011732;28;20030;-52
2023/03/25 02:11:38;;;;;;;7.18;1.50;;;9.60;99.90;;;;;;5011184;28;20045;-53
2023/03/25 02:14:11;;;;;;;6.53;2.35;;;9.60;99.90;;;;;;5011642;28;20034;-53
2023/03/25 02:16:54;;;;;;;5.70;1.20;;;9.60;99.90;;;;;;5011609;28;20290;-51
2023/03/25 02:19:26;;;;;;;3.58;1.20;;;9.50;99.90;;;;;;5011673;28;20474;-49
2023/03/25 02:22:24;;;;;;;4.00;1.08;;;9.50;99.90;;;;;;5011356;28;20030;-50
2023/03/25 02:24:52;;;;;;;4.05;1.10;;;9.60;99.90;;;;;;5011809;28;20374;-48
2023/03/25 02:27:44;;;;;;;2.78;1.13;;;9.50;99.90;;;;;;5011443;28;20033;-52
2023/03/25 02:30:31;;;;;;;2.20;1.02;;;9.50;99.90;;;;;;5012080;28;20088;-56
2023/03/25 02:33:25;;;;;;;8.15;1.30;;;9.40;99.90;;;;;;5012150;28;20036;-52
2023/03/25 02:35:56;;;;;;;4.43;1.25;;;9.50;99.90;;;;;;5011716;28;20029;-48
2023/03/25 02:38:33;;;;;;;7.45;2.20;;;9.50;99.90;;;;;;5011597;28;20034;-53
2023/03/25 02:40:58;;;;;;;1.75;0.73;;;9.50;99.90;;;;;;5011343;28;20024;-50
2023/03/25 02:43:43;;;;;;;3.95;1.08;;;9.40;99.90;;;;;;5014611;28;20101;-52
2023/03/25 02:46:14;;;;;;;2.10;0.75;;;9.40;99.90;;;;;;5015507;28;20033;-48
2023/03/25 02:48:50;;;;;;;1.02;0.95;;;9.40;99.90;;;;;;5015262;28;20093;-50
2023/03/25 02:51:20;;;;;;;7.13;1.35;;;9.40;99.90;;;;;;5015114;28;20032;-49
2023/03/25 02:53:49;;;;;;;1.23;1.13;;;9.40;99.90;;;;;;5015264;28;20033;-49
2023/03/25 02:56:21;;;;;;;2.15;0.90;;;9.50;99.90;;;;;;5015201;28;20033;-50
2023/03/25 02:58:48;;;;;;;2.05;0.60;;;9.50;99.90;;;;;;4997375;28;20018;-53
2023/03/25 03:01:14;;;;;;;2.40;0.57;;;9.50;99.90;;;;;;5015178;28;20109;-52
2023/03/25 03:03:40;;;;;;;0.98;0.65;;;9.50;99.90;;;;;;5015109;28;20061;-48
2023/03/25 03:06:06;;;;;;;0.55;0.50;;;9.50;99.90;;;;;;5014998;28;20033;-49
2023/03/25 03:08:50;;;;;;;2.92;0.80;;;9.60;99.90;;;;;;5014810;28;20052;-50
2023/03/25 03:11:19;;;;;;;3.60;0.80;;;9.60;99.90;;;;;;5015799;28;20026;-48
2023/03/25 03:14:21;;;;;;;2.90;1.10;;;9.50;99.90;;;;;;5016655;28;20037;-54
2023/03/25 03:17:18;;;;;;;1.48;0.70;;;9.40;99.90;;;;;;5014931;28;20084;-49
2023/03/25 03:20:13;;;;;;;5.50;0.98;;;9.30;99.90;;;;;;5015969;28;20128;-50
2023/03/25 03:22:45;;;;;;;1.63;0.70;;;9.30;99.90;;;;;;4944093;28;20427;-50
2023/03/25 03:25:28;;;;;;;1.60;1.33;;;9.20;99.90;;;;;;5015203;28;20281;-52
2023/03/25 03:28:05;;;;;;;0.98;0.70;;;9.10;99.90;;;;;;5015989;28;20390;-55
2023/03/25 03:30:38;;;;;;;6.95;1.17;;;9.10;99.90;;;;;;5015505;28;20029;-53
2023/03/25 03:33:40;;;;;;;4.68;1.08;;;9.00;99.90;;;;;;5014501;28;20374;-56
2023/03/25 03:36:09;;;;;;;2.55;0.65;;;9.00;99.90;;;;;;5014539;28;20113;-53
2023/03/25 03:38:45;;;;;;;2.00;0.63;;;9.00;99.90;;;;;;5014291;28;20058;-49
2023/03/25 03:41:15;;;;;;;3.03;1.48;;;9.00;99.90;;;;;;5014305;28;20030;-49
2023/03/25 03:43:56;;;;;;;0.82;0.70;;;8.90;99.90;;;;;;5014195;28;20022;-49
2023/03/25 03:46:45;;;;;;;1.83;0.70;;;8.90;99.90;;;;;;5014144;28;20026;-49
2023/03/25 03:49:19;;;;;;;1.60;0.90;;;8.90;99.90;;;;;;5013353;28;20509;-52
2023/03/25 03:52:20;;;;;;;1.90;1.00;;;8.80;99.90;;;;;;5013744;28;20080;-51
2023/03/25 03:55:09;;;;;;;0.85;0.70;;;8.80;99.90;;;;;;4982242;28;20033;-50
2023/03/25 03:57:43;;;;;;;0.68;0.68;;;8.80;99.90;;;;;;5013906;28;20033;-52
2023/03/25 04:00:13;;;;;;;2.58;0.95;;;8.80;99.90;;;;;;5013882;28;20033;-49
2023/03/25 04:02:47;;;;;;;2.15;0.77;;;8.80;99.90;;;;;;5013530;28;20575;-48
2023/03/25 04:05:16;;;;;;;4.60;1.02;;;8.80;99.90;;;;;;5013571;28;20077;-51
2023/03/25 04:07:53;;;;;;;4.40;0.85;;;8.90;99.90;;;;;;5013566;28;20033;-49
2023/03/25 04:10:38;;;;;;;2.15;1.13;;;8.80;99.90;;;;;;5013518;28;20032;-54
2023/03/25 04:13:08;;;;;;;1.60;1.02;;;8.80;99.90;;;;;;5013722;28;20045;-48
2023/03/25 04:15:34;;;;;;;3.80;1.73;;;8.80;99.90;;;;;;5013687;28;20069;-52
2023/03/25 04:18:00;;;;;;;2.30;1.60;;;8.80;99.90;;;;;;5013339;28;20053;-51
2023/03/25 04:20:32;;;;;;;2.13;1.00;;;8.80;99.90;;;;;;5012822;28;20017;-49
2023/03/25 04:22:58;;;;;;;3.63;1.13;;;8.80;99.90;;;;;;5012932;28;20041;-49
2023/03/25 04:25:24;;;;;;;2.47;0.90;;;8.80;99.90;;;;;;5013520;28;20441;-52
2023/03/25 04:27:57;;;;;;;1.25;1.02;;;8.80;99.90;;;;;;5013106;28;20018;-54
2023/03/25 04:30:24;;;;;;;5.57;1.20;;;8.90;99.90;;;;;;4995475;28;20077;-49
2023/03/25 04:32:50;;;;;;;7.40;1.38;;;8.90;99.90;;;;;;5013144;28;20109;-51
2023/03/25 04:35:18;;;;;;;4.65;1.02;;;8.90;99.90;;;;;;4995538;28;20053;-55
2023/03/25 04:37:44;;;;;;;5.50;0.98;;;8.90;99.90;;;;;;5012945;28;20107;-48
2023/03/25 04:40:17;;;;;;;2.28;1.02;;;8.90;99.90;;;;;;5013012;28;20076;-55
2023/03/25 04:42:45;;;;;;;4.47;2.17;;;8.90;99.90;;;;;;5013055;28;20434;-50
2023/03/25 04:45:15;;;;;;;3.28;1.10;;;9.00;99.90;;;;;;5013098;28;20029;-51
2023/03/25 04:47:47;;;;;;;5.03;1.77;;;8.90;99.90;;;;;;4995241;28;20485;-51
2023/03/25 04:50:20;;;;;;;2.42;1.30;;;8.90;99.90;;;;;;5012745;28;20121;-49
2023/03/25 04:52:47;;;;;;;4.75;1.48;;;9.00;99.90;;;;;;4994828;28;20418;-48
2023/03/25 04:55:18;;;;;;;1.67;0.98;;;9.00;99.90;;;;;;5012903;28;20075;-56
2023/03/25 04:57:45;;;;;;;3.15;1.77;;;9.00;99.90;;;;;;5012774;28;20505;-51
2023/03/25 05:00:12;;;;;;;3.70;1.00;;;9.00;99.90;;;;;;4995124;28;20112;-52
2023/03/25 05:02:44;;;;;;;4.28;2.35;;;9.00;99.90;;;;;;5012721;28;20044;-48
2023/03/25 05:05:16;;;;;;;1.75;0.82;;;9.00;99.90;;;;;;5012703;28;20030;-49
2023/03/25 05:07:45;;;;;;;2.83;0.82;;;9.00;99.90;;;;;;5012708;28;20080;-52
2023/03/25 05:10:11;;;;;;;4.63;1.27;;;9.00;99.90;;;;;;5012626;28;20018;-53
2023/03/25 05:12:37;;;;;;;2.35;1.13;;;9.00;99.90;;;;;;5012356;28;20053;-50
2023/03/25 05:15:02;;;;;;;1.95;0.98;;;8.90;99.90;;;;;;5012468;28;20065;-53
2023/03/25 05:17:28;;;;;;;5.85;1.20;;;8.90;99.90;;;;;;5012154;28;20565;-53
2023/03/25 05:19:55;;;;;;;4.38;1.00;;;8.90;99.90;;;;;;5012040;28;20117;-50
2023/03/25 05:22:21;;;;;;;2.80;1.13;;;8.90;99.90;;;;;;5011856;28;20113;-55
2023/03/25 05:24:47;;;;;;;2.88;1.23;;;8.90;99.90;;;;;;5012316;28;20026;-53
2023/03/25 05:27:13;;;;;;;3.65;2.00;;;8.90;99.90;;;;;;5012019;28;20481;-54
2023/03/25 05:29:38;;;;;;;2.72;0.93;;;8.90;99.90;;;;;;4994638;28;20029;-51
2023/03/25 05:32:04;;;;;;;2.30;1.00;;;8.80;99.90;;;;;;5012213;28;20026;-56
2023/03/25 05:34:30;;;;;;;3.13;1.10;;;8.90;99.90;;;;;;5012254;28;20030;-49
2023/03/25 05:36:56;;;;;;;2.25;0.95;;;8.90;99.90;;;;;;5012193;28;20023;-50
2023/03/25 05:39:21;;;;;;;2.45;1.55;;;8.90;99.90;;;;;;5012258;28;20041;-49
2023/03/25 05:41:47;;;;;;;2.28;0.82;;;8.90;99.90;;;;;;4994144;28;20072;-52
2023/03/25 05:44:14;;;;;;;2.90;1.80;;;8.90;99.90;;;;;;5012024;28;20113;-57
2023/03/25 05:46:39;;;;;;;1.75;0.98;;;8.80;99.90;;;;;;4994258;28;20041;-50
2023/03/25 05:49:05;;;;;;;4.00;1.08;;;8.80;99.90;;;;;;5012268;28;20080;-54
2023/03/25 05:51:36;;;;;;;4.95;1.52;;;8.80;99.90;;;;;;5011730;28;20064;-56
2023/03/25 05:54:02;;;;;;;2.95;1.27;;;8.70;99.90;;;;;;4994801;28;20022;-53
2023/03/25 05:56:28;;;;;;;4.07;1.15;;;8.70;99.90;;;;;;5011884;28;20026;-49
2023/03/25 05:58:55;;;;;;;4.38;1.70;;;8.60;99.90;;;;;;5011950;28;20233;-50
2023/03/25 06:01:21;;;;;;;5.22;1.20;;;8.50;99.90;;;;;;5012051;28;20126;-53
2023/03/25 06:03:47;;;;;;;2.50;1.45;;;8.50;99.90;;;;;;5012087;28;20050;-53
2023/03/25 06:06:13;;;;;;;4.13;1.58;;;8.50;99.90;;;;;;5011539;28;20032;-51
2023/03/25 06:08:49;;;;;;;2.38;1.58;;;8.50;99.90;;;;;;5011841;28;20330;-50
2023/03/25 06:11:16;;;;;;;2.28;1.40;;;8.50;99.90;;;;;;5011784;28;20428;-52
2023/03/25 06:13:48;;;;;;;1.35;1.25;;;8.60;99.90;;;;;;5011640;28;20076;-54
2023/03/25 06:16:19;;;;;;;6.72;1.30;;;8.60;99.90;;;;;;5011719;28;20056;-53
2023/03/25 06:18:49;;;;;;;4.28;1.55;;;8.60;99.90;;;;;;5015462;28;20481;-54
2023/03/25 06:21:19;;;;;;;1.85;1.15;;;8.70;99.90;;;;;;4997721;28;20096;-50
2023/03/25 06:23:47;;;;;;;5.38;1.55;;;8.70;99.90;;;;;;5015806;28;20041;-51
2023/03/25 06:26:12;;;;;;;6.55;1.52;;;8.70;99.90;;;;;;5015391;28;20022;-54
2023/03/25 06:28:38;;;;;;;4.45;1.33;;;8.70;99.90;;;;;;5015198;28;20616;-55
2023/03/25 06:31:06;;;;;;;4.95;1.40;;;8.60;99.90;;;;;;5015062;28;20064;-53
2023/03/25 06:33:31;;;;;;;3.03;1.23;;;8.70;99.90;;;;;;5015164;28;20096;-50
2023/03/25 06:35:57;;;;;;;4.07;1.35;;;8.70;99.90;;;;;;5015219;28;20160;-50
2023/03/25 06:38:22;;;;;;;6.32;2.28;;;8.80;99.90;;;;;;5015479;28;20022;-52
2023/03/25 06:40:48;;;;;;;5.47;1.50;;;8.90;99.90;;;;;;5014802;28;20109;-49
2023/03/25 06:43:13;;;;;;;10.00;2.38;;;9.10;99.90;;;;;;5015027;28;20040;-49
2023/03/25 06:45:39;;;;;;;8.82;2.20;;;9.10;99.90;;;;;;4997388;28;20113;-49
2023/03/25 06:48:05;;;;;;;5.60;2.10;;;9.30;99.90;;;;;;5014907;28;20428;-52
2023/03/25 06:50:31;;;;;;;3.45;1.45;;;9.60;99.90;;;;;;5014928;28;20417;-49
2023/03/25 06:52:57;;;;;;;5.63;1.45;;;9.90;99.90;;;;;;5014887;28;20037;-52
2023/03/25 06:55:23;;;;;;;5.25;1.60;;;10.30;99.90;;;;;;5015607;28;20022;-52
2023/03/25 06:57:48;;;;;;;4.10;1.55;;;11.10;99.90;;;;;;5016003;28;20025;-54
2023/03/25 07:00:19;;;;;;;3.08;1.38;;;12.10;99.90;;;;;;5014754;28;20030;-54
2023/03/25 07:02:45;;;;;;;6.88;2.20;;;12.70;99.90;;;;;;5014518;28;20121;-50
2023/03/25 07:05:10;;;;;;;6.45;1.23;;;13.10;99.90;;;;;;5014750;28;20034;-51
2023/03/25 07:07:36;;;;;;;4.13;1.23;;;13.40;99.90;;;;;;5014592;28;20029;-52
2023/03/25 07:10:01;;;;;;;4.78;1.02;;;13.60;99.90;;;;;;5014645;28;20038;-52
2023/03/25 07:12:27;;;;;;;4.38;1.17;;;13.60;99.90;;;;;;5014439;28;20490;-53
2023/03/25 07:14:54;;;;;;;9.38;1.73;;;13.50;99.90;;;;;;5014364;28;20021;-54
2023/03/25 07:17:20;;;;;;;2.60;1.20;;;14.00;99.90;;;;;;5014363;28;20067;-53
2023/03/25 07:19:45;;;;;;;3.95;1.63;;;14.30;99.90;;;;;;5014576;28;20018;-50
2023/03/25 07:22:11;;;;;;;3.55;1.25;;;14.80;99.90;;;;;;4996611;28;20038;-55
2023/03/25 07:24:37;;;;;;;3.97;1.20;;;15.10;99.90;;;;;;5014367;28;20029;-52
2023/03/25 07:27:02;;;;;;;4.55;1.50;;;15.10;99.90;;;;;;5014125;28;20453;-54
2023/03/25 07:29:28;;;;;;;4.13;1.00;;;14.80;99.90;;;;;;4996499;28;20069;-55
2023/03/25 07:31:53;;;;;;;5.97;1.40;;;14.80;99.90;;;;;;5013870;28;20513;-51
2023/03/25 07:34:19;;;;;;;4.28;1.65;;;14.80;99.90;;;;;;5014224;28;20431;-51
2023/03/25 07:36:44;;;;;;;4.45;1.67;;;14.90;99.90;;;;;;5014263;28;20105;-54
2023/03/25 07:39:10;;;;;;;4.78;1.60;;;15.30;99.90;;;;;;5014204;28;20020;-53
2023/03/25 07:41:36;;;;;;;5.88;2.15;;;15.80;99.90;;;;;;5013687;28;20125;-54
2023/03/25 07:44:01;;;;;;;5.03;1.75;;;16.40;99.90;;;;;;5014029;28;20109;-54
2023/03/25 07:46:27;;;;;;;7.15;1.73;;;16.50;99.90;;;;;;5013718;28;20026;-54
2023/03/25 07:48:52;;;;;;;21.10;2.53;;;16.60;99.90;;;;;;5013922;28;20570;-51
2023/03/25 07:51:18;;;;;;;11.15;2.40;;;15.70;99.90;;;;;;5013410;28;20022;-51
2023/03/25 07:53:45;;;;;;;11.77;2.42;;;14.70;99.90;;;;;;5013617;28;20029;-54
2023/03/25 07:56:11;;;;;;;9.75;2.25;;;14.30;99.90;;;;;;5013897;28;20390;-49
2023/03/25 07:58:37;;;;;;;10.48;2.50;;;13.80;99.90;;;;;;5012015;28;20083;-56
2023/03/25 08:01:03;;;;;;;11.32;2.38;;;13.20;99.90;;;;;;5013180;28;20521;-57
2023/03/25 08:03:29;;;;;;;16.30;2.20;;;12.70;99.90;;;;;;5013587;28;20037;-57
2023/03/25 08:05:55;;;;;;;19.75;4.35;;;12.30;99.90;;;;;;5012525;28;20037;-50
2023/03/25 08:08:20;;;;;;;7.70;2.88;;;12.20;99.90;;;;;;5013273;28;20444;-49
2023/03/25 08:10:46;;;;;;;9.15;2.40;;;12.00;99.90;;;;;;5014522;28;20044;-53
2023/03/25 08:13:13;;;;;;;11.88;2.65;;;11.90;99.90;;;;;;5013521;28;20061;-54
2023/03/25 08:15:39;;;;;;;7.43;1.83;;;11.90;99.90;;;;;;5012432;28;20018;-57
2023/03/25 08:18:06;;;;;;;12.02;2.15;;;11.90;99.90;;;;;;5013387;28;20018;-56
2023/03/25 08:20:32;;;;;;;10.88;2.58;;;12.10;99.90;;;;;;5011636;28;20018;-57
2023/03/25 08:22:58;;;;;;;10.18;2.55;;;12.20;99.90;;;;;;5011978;28;20120;-51
2023/03/25 08:25:24;;;;;;;14.85;3.10;;;12.50;99.90;;;;;;4994946;28;20169;-55
2023/03/25 08:27:49;;;;;;;7.85;2.00;;;12.50;99.90;;;;;;5012763;28;20108;-49
2023/03/25 08:30:16;;;;;;;9.05;2.45;;;12.40;99.90;;;;;;5012659;28;20180;-55
2023/03/25 08:32:44;;;;;;;6.50;2.22;;;12.30;99.90;;;;;;5012736;28;20026;-49
2023/03/25 08:35:10;;;;;;;19.42;2.95;;;12.20;99.90;;;;;;5012681;28;20022;-54
2023/03/25 08:37:36;;;;;;;9.20;2.45;;;12.20;99.90;;;;;;5012621;28;20378;-55
2023/03/25 08:40:09;;;;;;;11.02;2.80;;;12.20;99.90;;;;;;5012091;28;20498;-54
2023/03/25 08:42:36;;;;;;;14.25;3.65;;;12.30;99.90;;;;;;5012686;28;20022;-54
2023/03/25 08:45:03;;;;;;;11.95;2.58;;;12.30;99.90;;;;;;5012711;28;20563;-55
2023/03/25 08:47:29;;;;;;;11.65;2.20;;;12.20;99.90;;;;;;5012663;28;20038;-53
2023/03/25 08:49:54;;;;;;;6.65;2.72;;;12.10;99.90;;;;;;4994839;28;20033;-53
2023/03/25 08:52:20;;;;;;;8.15;2.13;;;12.10;99.90;;;;;;5012510;28;20026;-53
2023/03/25 08:54:45;;;;;;;6.15;1.85;;;11.90;99.90;;;;;;4995083;28;20021;-53
2023/03/25 08:57:11;;;;;;;12.82;2.45;;;11.80;99.90;;;;;;5012077;28;20025;-50
2023/03/25 08:59:37;;;;;;;13.35;2.97;;;11.70;99.90;;;;;;5012365;28;20033;-54
2023/03/25 09:02:02;;;;;;;7.20;2.00;;;11.70;99.90;;;;;;5012246;28;20052;-55
2023/03/25 09:04:29;;;;;;;6.70;2.30;;;11.70;99.90;;;;;;5012419;28;20025;-55
2023/03/25 09:06:55;;;;;;;10.27;2.53;;;11.70;99.90;;;;;;5012316;28;20030;-51
2023/03/25 09:09:21;;;;;;;10.35;1.73;;;11.70;99.90;;;;;;5010779;28;20048;-52
2023/03/25 09:11:46;;;;;;;10.10;2.10;;;11.80;99.90;;;;;;5011721;28;20022;-55
2023/03/25 09:14:12;;;;;;;13.93;3.55;;;11.70;99.90;;;;;;5012241;28;20026;-55
2023/03/25 09:16:37;;;;;;;10.93;2.42;;;11.60;99.90;;;;;;5011929;28;20029;-51
2023/03/25 09:19:03;;;;;;;6.95;1.77;;;11.50;99.90;;;;;;5012039;28;20029;-53
2023/03/25 09:21:28;;;;;;;7.78;1.75;;;11.60;99.90;;;;;;5011386;28;20030;-50
2023/03/25 09:23:54;;;;;;;13.80;2.55;;;11.50;99.90;;;;;;5011475;28;20475;-49
2023/03/25 09:26:20;;;;;;;11.43;1.80;;;11.50;99.90;;;;;;5012056;28;20021;-55
2023/03/25 09:28:46;;;;;;;13.40;2.42;;;11.50;99.90;;;;;;5011450;28;20028;-50
2023/03/25 09:31:13;;;;;;;8.40;2.08;;;11.50;99.90;;;;;;5012050;28;20478;-51
2023/03/25 09:33:39;;;;;;;16.77;3.72;;;11.50;99.90;;;;;;5012055;28;20486;-52
2023/03/25 09:36:06;;;;;;;6.90;1.98;;;11.50;99.90;;;;;;5011869;28;20073;-52
2023/03/25 09:38:32;;;;;;;4.97;1.98;;;11.50;99.90;;;;;;5011720;28;20014;-51
2023/03/25 09:40:58;;;;;;;13.30;2.45;;;11.40;99.90;;;;;;5012614;28;20041;-51
2023/03/25 09:43:50;;;;;;;4.65;1.67;;;11.30;99.90;;;;;;4993848;28;20030;-56
2023/03/25 09:46:16;;;;;;;7.50;1.67;;;11.30;99.90;;;;;;4994406;28;20450;-53
2023/03/25 09:48:45;;;;;;;10.43;1.80;;;11.20;99.90;;;;;;5011701;28;20026;-54
2023/03/25 09:51:26;;;;;;;7.43;1.58;;;11.20;99.90;;;;;;5010711;28;20398;-55
2023/03/25 09:54:03;;;;;;;8.38;2.38;;;11.30;99.90;;;;;;5011715;28;20026;-49
2023/03/25 09:56:34;;;;;;;5.78;1.83;;;11.40;99.90;;;;;;5011782;28;20022;-49
2023/03/25 09:59:12;;;;;;;6.95;2.13;;;11.50;99.90;;;;;;5011754;28;20030;-50
2023/03/25 10:01:51;;;;;;;4.07;2.08;;;11.60;99.90;;;;;;5010698;28;20030;-54
2023/03/25 10:04:44;;;;;;;12.20;2.13;;;11.70;99.90;;;;;;5010858;28;20022;-53
2023/03/25 10:07:09;;;;;;;5.43;1.60;;;11.70;99.90;;;;;;4993825;28;20560;-54
2023/03/25 10:10:01;;;;;;;3.78;1.52;;;11.70;99.90;;;;;;5011633;28;20070;-55
2023/03/25 10:12:30;;;;;;;2.38;0.90;;;11.40;99.90;;;;;;5011626;28;20030;-50
2023/03/25 10:15:13;;;;;;;5.03;0.93;;;10.60;99.90;;;;;;5011475;28;20018;-50
2023/03/25 10:17:44;;;;;;;4.55;0.95;;;9.90;99.90;;;;;;5012201;28;20050;-52
2023/03/25 10:20:24;;;;;;;1.83;0.50;;;9.40;99.90;;;;;;5010725;28;20030;-54
2023/03/25 10:22:49;;;;;;;1.17;0.60;;;9.20;99.90;;;;;;5000669;28;20121;-53
2023/03/25 10:25:21;;;;;;;3.00;0.70;;;9.00;99.90;;;;;;5001605;28;20124;-52
2023/03/25 10:27:51;;;;;;;13.60;8.07;;;9.00;99.90;;;;;;4993714;28;20512;-52
2023/03/25 10:30:19;;;;;;;5.80;1.02;;;9.20;99.90;;;;;;5011588;28;20029;-53
2023/03/25 10:32:55;;;;;;;1.85;1.10;;;9.50;99.90;;;;;;5009953;28;20080;-53
2023/03/25 10:35:31;;;;;;;1.08;0.52;;;9.90;99.90;;;;;;5011535;28;20409;-51
2023/03/25 10:38:25;;;;;;;3.75;0.70;;;10.10;99.90;;;;;;4992986;28;20029;-55
2023/03/25 10:41:17;;;;;;;2.50;0.65;;;10.40;99.90;;;;;;5011255;28;20072;-51
2023/03/25 10:43:43;;;;;;;0.82;0.40;;;10.90;99.90;;;;;;4999131;28;20025;-56
2023/03/25 10:46:27;;;;;;;2.00;0.70;;;11.00;99.90;;;;;;5011094;28;20030;-57
2023/03/25 10:48:52;;;;;;;2.60;0.70;;;11.10;99.90;;;;;;4991044;28;20037;-52
2023/03/25 10:51:27;;;;;;;1.67;1.00;;;11.30;99.90;;;;;;5008129;28;20121;-53
2023/03/25 10:53:54;;;;;;;2.88;1.55;;;11.40;99.90;;;;;;5011098;28;20056;-54
2023/03/25 10:56:23;;;;;;;2.35;0.77;;;11.50;99.90;;;;;;5009708;28;20109;-55
2023/03/25 10:58:52;;;;;;;1.95;0.65;;;12.00;99.90;;;;;;5010121;28;20030;-55
2023/03/25 11:01:21;;;;;;;4.82;0.73;;;11.90;99.90;;;;;;5010874;28;20034;-55
2023/03/25 11:03:52;;;;;;;2.47;0.85;;;12.10;99.90;;;;;;5011744;28;20048;-57
2023/03/25 11:06:25;;;;;;;1.98;0.60;;;12.30;99.90;;;;;;5014772;28;20037;-51
2023/03/25 11:09:12;;;;;;;5.05;0.70;;;12.20;99.90;;;;;;5015262;28;20037;-52
2023/03/25 11:11:38;;;;;;;2.53;1.02;;;12.20;99.90;;;;;;5014065;28;20447;-51
2023/03/25 11:14:04;;;;;;;2.50;1.13;;;12.20;99.90;;;;;;5014847;28;20081;-53
2023/03/25 11:16:35;;;;;;;6.63;1.10;;;12.30;99.90;;;;;;5014472;28;20046;-50
2023/03/25 11:19:02;;;;;;;2.92;0.90;;;12.30;99.90;;;;;;5015015;28;20022;-56
2023/03/25 11:21:34;;;;;;;5.90;1.67;;;12.40;99.90;;;;;;5014333;28;20120;-55
2023/03/25 11:24:00;;;;;;;4.63;1.08;;;12.50;99.90;;;;;;5013191;28;20034;-56
2023/03/25 11:26:32;;;;;;;4.25;1.48;;;12.60;99.90;;;;;;5013970;28;20060;-54
2023/03/25 11:29:06;;;;;;;5.38;1.45;;;12.80;99.90;;;;;;5014595;28;20028;-53
2023/03/25 11:31:36;;;;;;;4.50;1.73;;;12.90;99.90;;;;;;5014339;28;20029;-53
2023/03/25 11:34:03;;;;;;;7.85;1.15;;;13.00;99.90;;;;;;5014350;28;20026;-54
2023/03/25 11:36:34;;;;;;;5.22;1.13;;;13.10;99.90;;;;;;5014162;28;20029;-54
2023/03/25 11:39:08;;;;;;;3.72;0.93;;;13.20;99.90;;;;;;5014356;28;20026;-56
2023/03/25 11:41:36;;;;;;;3.33;1.13;;;13.40;99.90;;;;;;5013813;28;20053;-54
2023/03/25 11:44:05;;;;;;;2.72;0.88;;;13.30;99.90;;;;;;5014166;28;20497;-60
2023/03/25 11:46:33;;;;;;;2.85;1.17;;;13.30;99.90;;;;;;5014089;28;20026;-52
2023/03/25 11:49:08;;;;;;;9.07;2.47;;;13.30;99.90;;;;;;5014148;28;20160;-55
2023/03/25 11:51:34;;;;;;;;;;;13.30;99.90;;;;;;5014363;28;20068;-53
2023/03/25 11:54:06;;;;;;;8.88;3.40;;;13.30;99.90;;;;;;5013927;28;19998;-56
2023/03/25 11:56:38;;;;;;;28.15;18.58;;;13.50;99.90;;;;;;5012793;28;20206;-55
2023/03/25 11:59:15;;;;;;;6.57;3.58;;;13.60;99.90;;;;;;5014114;28;20068;-51
2023/03/25 12:01:45;;;;;;;2.08;0.98;;;13.80;99.90;;;;;;5013816;28;20026;-51
2023/03/25 12:04:22;;;;;;;4.03;1.42;;;13.80;99.90;;;;;;5013453;28;20017;-55
2023/03/25 12:07:08;;;;;;;6.80;1.60;;;13.90;99.90;;;;;;5013650;28;20026;-53
2023/03/25 12:09:35;;;;;;;2.47;1.20;;;14.00;99.90;;;;;;4996002;28;20068;-53
2023/03/25 12:12:33;;;;;;;3.80;1.63;;;14.00;99.90;;;;;;5013175;28;20030;-54
2023/03/25 12:15:10;;;;;;;5.53;1.52;;;13.90;99.90;;;;;;5012308;28;20030;-58
2023/03/25 12:18:05;;;;;;;5.50;1.33;;;13.80;99.90;;;;;;5012591;28;20076;-53
2023/03/25 12:20:54;;;;;;;5.28;1.67;;;13.60;99.90;;;;;;4989555;28;20547;-54
2023/03/25 12:23:31;;;;;;;2.08;1.05;;;13.50;99.90;;;;;;5012858;28;20069;-51
2023/03/25 12:26:11;;;;;;;3.42;1.63;;;13.60;99.90;;;;;;5012943;28;20022;-50
2023/03/25 12:28:46;;;;;;;4.97;1.30;;;13.60;99.90;;;;;;5014002;28;20101;-50
2023/03/25 12:31:33;;;;;;;4.47;1.73;;;13.60;99.90;;;;;;5013744;28;20390;-49
2023/03/25 12:34:05;;;;;;;2.50;0.90;;;13.40;99.90;;;;;;5013552;28;20034;-49
2023/03/25 12:36:33;;;;;;;4.75;1.02;;;13.30;99.90;;;;;;5013312;28;20098;-50
2023/03/25 12:39:23;;;;;;;3.83;1.10;;;13.40;99.90;;;;;;5013224;28;20077;-49
2023/03/25 12:42:15;;;;;;;2.53;1.02;;;13.10;99.90;;;;;;5013117;28;20029;-55
2023/03/25 12:45:03;;;;;;;4.07;1.38;;;13.00;99.90;;;;;;5013397;28;20030;-49
2023/03/25 12:47:41;;;;;;;4.88;0.80;;;12.80;99.90;;;;;;5013007;28;20022;-51
2023/03/25 12:50:24;;;;;;;5.85;1.25;;;12.70;99.90;;;;;;5012757;28;20501;-51
2023/03/25 12:53:24;;;;;;;4.82;1.27;;;12.70;99.90;;;;;;5012628;28;20444;-48
2023/03/25 12:56:04;;;;;;;3.13;1.00;;;12.60;99.90;;;;;;5012498;28;20453;-50
2023/03/25 12:58:55;;;;;;;3.90;0.90;;;12.50;99.90;;;;;;5012508;28;20073;-51
2023/03/25 13:01:59;;;;;;;5.20;0.95;;;11.90;99.90;;;;;;5012495;28;20055;-48
2023/03/25 13:04:37;;;;;;;2.42;0.82;;;11.50;99.90;;;;;;4975138;28;20073;-50
2023/03/25 13:07:19;;;;;;;3.47;0.70;;;11.30;99.90;;;;;;5012943;28;20427;-51
2023/03/25 13:10:16;;;;;;;1.77;0.63;;;11.30;99.90;;;;;;5012342;28;20025;-51